Time;durP1;ratioP1;P1;durP2;ratioP2;P2;SDS_P1;SDS_P2;PMS_P1;PMS_P2;Temp;Humidity;BMP_temperature;BMP_pressure;BME280_temperature;BME280_humidity;BME280_pressure;Samples;Min_cycle;Max_cycle;Signal;HPM_P1;HPM_P2
2022/05/01 00:03:31;;;;;;;2.63;2.15;;;15.70;36.80;;;13.54;39.43;101825.44;12239284;19;20014;-79
2022/05/01 00:07:33;;;;;;;2.42;2.13;;;15.70;36.90;;;13.41;39.44;101812.09;12242680;19;20003;-80
2022/05/01 00:11:34;;;;;;;2.70;2.30;;;15.60;36.90;;;13.39;39.52;101819.16;12239836;19;20018;-79
2022/05/01 00:15:36;;;;;;;3.85;2.83;;;15.40;36.90;;;13.27;39.61;101816.22;12244063;19;20081;-80
2022/05/01 00:19:37;;;;;;;2.28;1.98;;;15.50;37.00;;;13.12;39.67;101795.94;12239360;19;20015;-79
2022/05/01 00:23:39;;;;;;;3.10;2.42;;;15.40;37.00;;;13.15;39.77;101824.69;12236390;19;20010;-79
2022/05/01 00:27:41;;;;;;;2.35;2.15;;;15.30;37.10;;;12.61;39.86;101751.22;12233694;19;20630;-79
2022/05/01 00:31:43;;;;;;;4.93;2.55;;;15.20;37.10;;;13.03;39.84;101830.50;12234963;19;20102;-79
2022/05/01 00:40:06;;;;;;;3.13;2.17;;;15.10;37.30;;;12.93;39.90;101822.22;12234504;19;20088;-79
2022/05/01 00:44:12;;;;;;;2.92;2.05;;;15.10;37.40;;;12.87;40.31;101824.28;12231684;19;20018;-79
2022/05/01 00:48:14;;;;;;;5.55;2.75;;;15.00;37.40;;;12.60;40.18;101791.41;12238885;19;20042;-79
2022/05/01 00:52:17;;;;;;;2.35;2.15;;;14.80;37.40;;;12.62;40.22;101815.78;12238021;19;20010;-79
2022/05/01 00:56:19;;;;;;;2.35;2.15;;;14.90;37.50;;;12.42;40.28;101797.50;12238386;19;20014;-79
2022/05/01 01:00:21;;;;;;;2.70;2.50;;;14.70;37.50;;;12.29;40.34;101781.53;12242300;19;20026;-79
2022/05/01 01:04:24;;;;;;;3.00;2.40;;;14.70;37.60;;;12.44;40.64;101821.88;12238325;19;20015;-79
2022/05/01 01:08:25;;;;;;;2.55;2.22;;;14.70;37.50;;;12.32;40.58;101817.19;12239099;19;20029;-79
2022/05/01 01:16:46;;;;;;;3.03;2.13;;;14.60;37.50;;;12.11;40.71;101813.75;12240929;19;20028;-79
2022/05/01 01:20:50;;;;;;;3.08;2.15;;;14.40;37.50;;;12.08;40.75;101822.59;12240592;19;20078;-79
2022/05/01 01:24:53;;;;;;;3.85;2.20;;;14.30;37.60;;;11.77;40.99;101768.06;12236038;19;20647;-79
2022/05/01 01:28:55;;;;;;;4.75;2.28;;;14.30;37.70;;;11.99;40.95;101817.78;12236328;19;20022;-79
2022/05/01 01:32:56;;;;;;;2.33;2.13;;;14.20;37.70;;;11.59;40.80;101759.28;12238786;19;20010;-79
2022/05/01 01:36:59;;;;;;;4.10;2.05;;;14.10;37.80;;;11.80;41.03;101790.66;12237657;19;20006;-79
2022/05/01 01:41:09;;;;;;;4.13;2.35;;;14.10;37.90;;;11.83;41.23;101796.63;12239125;19;20003;-79
2022/05/01 01:45:10;;;;;;;2.45;2.00;;;13.80;38.00;;;11.81;40.96;101798.44;12239316;19;20021;-79
2022/05/01 01:49:12;;;;;;;2.47;2.20;;;14.10;38.10;;;11.94;41.09;101822.38;12235421;19;20112;-79
2022/05/01 01:53:13;;;;;;;2.13;1.92;;;14.10;38.00;;;11.64;41.04;101778.25;12235843;19;20511;-79
2022/05/01 01:57:15;;;;;;;3.97;2.30;;;14.10;38.10;;;11.85;41.18;101800.00;12238110;19;20024;-79
2022/05/01 02:01:16;;;;;;;2.53;2.33;;;14.10;38.00;;;11.86;41.27;101809.59;12251733;19;20026;-79
2022/05/01 02:05:18;;;;;;;2.08;1.88;;;14.10;38.00;;;11.91;41.23;101812.88;12249083;19;20017;-79
2022/05/01 02:09:20;;;;;;;3.20;2.42;;;14.00;38.00;;;11.92;41.22;101811.09;12249103;19;20028;-79
2022/05/01 02:13:21;;;;;;;2.33;2.13;;;14.00;38.10;;;11.92;41.17;101819.78;12248669;19;20078;-79
2022/05/01 02:17:23;;;;;;;6.22;1.98;;;14.00;38.10;;;11.68;41.21;101786.81;12243987;19;20027;-79
2022/05/01 02:21:36;;;;;;;2.80;1.88;;;14.00;38.10;;;11.48;41.21;101782.44;12244283;19;20047;-79
2022/05/01 02:25:40;;;;;;;2.10;1.73;;;13.90;38.00;;;11.19;41.36;101758.31;12237929;19;20023;-79
2022/05/01 02:29:44;;;;;;;4.18;2.53;;;13.80;37.90;;;11.21;41.57;101773.97;12244474;19;20006;-79
2022/05/01 02:33:46;;;;;;;2.05;1.83;;;13.70;37.90;;;11.41;41.41;101813.19;12246392;19;20025;-79
2022/05/01 02:37:48;;;;;;;3.70;2.30;;;13.60;38.00;;;11.39;41.66;101816.78;12246478;19;20018;-79
2022/05/01 02:41:50;;;;;;;2.17;1.90;;;13.60;38.10;;;11.35;41.62;101818.69;12248330;19;20053;-79
2022/05/01 02:45:52;;;;;;;1.80;1.70;;;13.80;38.20;;;11.31;41.72;101811.88;12248788;19;20115;-79
2022/05/01 02:49:53;;;;;;;2.20;1.73;;;13.40;38.20;;;11.28;41.60;101814.63;12247305;19;20086;-79
2022/05/01 02:53:55;;;;;;;2.65;2.08;;;13.30;38.20;;;11.19;41.62;101802.78;12244320;19;20021;-79
2022/05/01 02:57:57;;;;;;;2.05;1.85;;;13.30;38.20;;;11.20;41.86;101816.69;12245990;19;20019;-79
2022/05/01 03:01:59;;;;;;;2.13;1.77;;;13.40;38.40;;;10.73;41.88;101741.03;12246301;19;20014;-79
2022/05/01 03:06:00;;;;;;;2.97;1.80;;;13.30;38.40;;;10.84;41.93;101776.28;12244993;19;20006;-79
2022/05/01 03:10:02;;;;;;;1.98;1.88;;;13.10;38.30;;;10.93;41.92;101800.34;12244290;19;20025;-80
2022/05/01 03:14:04;;;;;;;6.75;1.92;;;13.20;38.40;;;10.72;42.01;101779.38;12244451;19;20015;-79
2022/05/01 03:22:26;;;;;;;2.33;1.98;;;13.10;38.40;;;10.81;42.02;101806.91;12244657;19;20023;-79
2022/05/01 03:26:28;;;;;;;4.40;2.33;;;12.90;38.40;;;10.72;42.25;101804.63;12244278;19;20014;-79
2022/05/01 03:30:29;;;;;;;2.47;2.00;;;13.00;38.60;;;10.66;42.15;101800.50;12243609;19;20022;-79
2022/05/01 03:34:31;;;;;;;2.95;1.90;;;12.90;38.60;;;10.73;42.28;101812.41;12241497;19;20011;-79
2022/05/01 03:38:41;;;;;;;9.02;1.92;;;12.90;38.60;;;10.69;42.66;101807.38;12244548;19;20017;-79
2022/05/01 03:42:43;;;;;;;7.30;1.65;;;12.90;39.00;;;10.65;42.48;101806.63;12241651;19;20496;-79
2022/05/01 03:46:44;;;;;;;3.50;1.73;;;12.70;38.80;;;10.65;42.32;101813.63;12243864;19;20472;-79
2022/05/01 03:50:46;;;;;;;6.03;2.05;;;12.80;38.80;;;10.51;42.45;101788.88;12240864;19;20507;-79
2022/05/01 03:54:47;;;;;;;2.08;1.60;;;12.80;38.80;;;10.63;42.41;101814.53;12239501;19;20031;-79
2022/05/01 03:58:49;;;;;;;1.90;1.80;;;12.80;38.90;;;10.57;42.55;101804.31;12241711;19;20014;-79
2022/05/01 04:02:52;;;;;;;2.13;1.92;;;12.80;39.00;;;10.27;42.53;101758.44;12242630;19;20041;-79
2022/05/01 04:06:53;;;;;;;1.88;1.77;;;12.60;38.90;;;10.53;42.65;101815.81;12242881;19;20511;-79
2022/05/01 04:10:55;;;;;;;1.70;1.60;;;12.80;39.00;;;10.47;42.75;101802.09;12238605;19;20366;-79
2022/05/01 04:14:58;;;;;;;2.72;1.83;;;12.80;39.10;;;10.53;42.75;101818.41;12239661;19;20010;-79
2022/05/01 04:19:00;;;;;;;1.75;1.65;;;12.80;39.20;;;10.51;42.75;101811.53;12240254;19;20048;-79
2022/05/01 04:23:03;;;;;;;2.15;1.85;;;12.70;39.20;;;10.61;42.70;101826.81;12241471;19;20014;-79
2022/05/01 04:27:06;;;;;;;2.25;2.05;;;12.80;39.30;;;10.58;42.85;101826.91;12240020;19;20021;-79
2022/05/01 04:31:08;;;;;;;1.77;1.60;;;12.70;39.20;;;10.49;42.79;101816.81;12239963;19;20017;-79
2022/05/01 04:35:09;;;;;;;2.20;1.77;;;13.00;39.40;;;10.60;42.91;101843.38;12242634;19;20507;-79
2022/05/01 04:39:11;;;;;;;3.22;1.73;;;12.80;39.40;;;10.47;42.84;101807.31;12240516;19;20018;-79
2022/05/01 04:43:17;;;;;;;1.42;1.27;;;12.80;39.60;;;10.51;43.11;101822.00;12236168;19;20032;-79
2022/05/01 04:47:19;;;;;;;1.52;1.40;;;12.80;39.50;;;10.51;42.95;101820.22;12238866;19;20022;-79
2022/05/01 04:51:20;;;;;;;2.08;1.58;;;12.60;39.30;;;10.66;43.21;101844.06;12239124;19;20018;-79
2022/05/01 04:55:23;;;;;;;1.98;1.60;;;12.70;39.40;;;10.47;43.14;101805.56;12235596;19;20018;-79
2022/05/01 04:59:24;;;;;;;2.00;1.65;;;12.80;39.40;;;10.45;43.07;101815.25;12239501;19;20015;-79
2022/05/01 05:03:26;;;;;;;2.28;1.70;;;12.90;39.90;;;10.60;43.16;101827.69;12237470;19;20107;-79
2022/05/01 05:07:27;;;;;;;1.80;1.70;;;12.70;39.40;;;10.50;43.27;101808.06;12240725;19;20018;-79
2022/05/01 05:11:29;;;;;;;2.15;1.50;;;12.90;39.50;;;10.75;43.25;101834.13;12234773;19;20018;-79
2022/05/01 05:15:31;;;;;;;2.13;1.73;;;13.20;39.50;;;10.71;43.21;101827.28;12238756;19;20407;-79
2022/05/01 05:19:35;;;;;;;1.67;1.55;;;12.90;39.40;;;10.73;43.13;101814.19;12238644;19;20018;-79
2022/05/01 05:23:36;;;;;;;3.50;1.80;;;13.00;39.40;;;10.79;43.34;101824.41;12234875;19;20024;-79
2022/05/01 05:27:38;;;;;;;1.73;1.63;;;12.90;39.50;;;10.58;43.10;101782.50;12235835;19;20389;-79
2022/05/01 05:31:40;;;;;;;2.80;2.00;;;13.10;39.60;;;10.94;43.25;101821.19;12247865;19;20333;-79
2022/05/01 05:35:42;;;;;;;6.70;1.90;;;13.10;39.50;;;11.04;43.14;101821.66;12251641;19;20043;-79
2022/05/01 05:39:44;;;;;;;1.98;1.73;;;13.20;39.60;;;11.20;43.17;101835.00;12251351;19;20011;-79
2022/05/01 05:43:45;;;;;;;2.25;2.05;;;13.40;39.80;;;11.29;43.27;101825.03;12246590;19;20007;-79
2022/05/01 05:47:47;;;;;;;1.67;1.58;;;13.20;39.60;;;11.52;43.27;101852.00;12249743;19;20374;-79
2022/05/01 05:51:49;;;;;;;1.80;1.52;;;13.50;39.60;;;11.57;43.22;101825.66;12247427;19;20078;-79
2022/05/01 05:55:50;;;;;;;1.75;1.65;;;13.60;39.70;;;11.87;43.36;101853.16;12249937;19;20006;-79
2022/05/01 05:59:52;;;;;;;2.40;1.80;;;13.70;39.70;;;12.13;43.27;101853.84;12248090;19;20470;-79
2022/05/01 06:03:56;;;;;;;2.97;1.90;;;13.90;39.70;;;12.30;43.14;101855.69;12241643;19;20356;-80
2022/05/01 06:07:58;;;;;;;2.05;1.77;;;14.10;39.70;;;12.17;43.22;101803.84;12244439;19;20014;-79
2022/05/01 06:11:59;;;;;;;1.98;1.40;;;14.30;39.90;;;12.32;42.95;101786.63;12239019;19;20020;-80
2022/05/01 06:16:01;;;;;;;2.80;1.75;;;14.50;39.50;;;12.90;42.81;101853.81;12245845;19;20497;-81
2022/05/01 06:20:03;;;;;;;2.90;1.25;;;14.70;39.50;;;12.92;43.03;101830.16;12244796;19;20047;-79
2022/05/01 06:24:07;;;;;;;1.90;1.50;;;14.90;39.40;;;13.16;42.89;101854.38;12242155;19;20018;-81
2022/05/01 06:28:10;;;;;;;2.30;1.77;;;15.10;39.30;;;13.21;42.82;101849.75;12243465;19;20476;-81
2022/05/01 06:32:17;;;;;;;2.25;1.88;;;15.20;39.50;;;13.32;42.84;101844.03;12238855;19;20022;-83
2022/05/01 06:36:18;;;;;;;2.25;1.80;;;15.30;38.90;;;13.38;42.80;101843.72;12243075;19;20015;-81
2022/05/01 06:40:20;;;;;;;2.67;1.63;;;15.30;38.90;;;13.50;42.83;101853.59;12242162;19;20018;-81
2022/05/01 06:44:21;;;;;;;1.70;1.60;;;15.60;38.90;;;13.66;42.75;101861.56;12239048;19;20023;-80
2022/05/01 06:48:23;;;;;;;2.03;1.73;;;15.70;38.80;;;13.72;42.70;101859.50;12241766;19;20018;-80
2022/05/01 06:52:25;;;;;;;1.77;1.52;;;15.70;38.70;;;13.91;42.59;101882.22;12240145;19;20019;-80
2022/05/01 06:56:26;;;;;;;2.00;1.90;;;15.70;38.60;;;13.96;42.57;101869.69;12242197;19;20018;-80
2022/05/01 07:00:28;;;;;;;7.90;1.80;;;15.90;38.50;;;13.78;42.53;101818.97;12244515;19;20062;-80
2022/05/01 07:04:29;;;;;;;1.65;1.55;;;15.90;38.40;;;13.90;42.52;101813.06;12240104;19;20014;-80
2022/05/01 07:08:31;;;;;;;3.10;1.67;;;16.10;38.40;;;14.27;42.32;101860.22;12242409;19;20042;-79
2022/05/01 07:12:32;;;;;;;2.85;1.50;;;16.30;38.30;;;14.52;42.27;101872.91;12239087;19;20010;-80
2022/05/01 07:16:34;;;;;;;3.47;2.05;;;16.20;38.10;;;14.74;42.09;101872.63;12240742;19;20475;-79
2022/05/01 07:20:35;;;;;;;1.77;1.30;;;16.50;38.10;;;14.91;42.05;101869.94;12241823;19;20026;-82
2022/05/01 07:24:37;;;;;;;1.40;1.30;;;16.70;38.10;;;15.04;41.94;101843.78;12237819;19;20023;-78
2022/05/01 07:28:39;;;;;;;1.88;1.55;;;16.90;38.10;;;15.32;41.67;101852.75;12235432;19;20444;-81
2022/05/01 07:32:41;;;;;;;2.63;1.42;;;17.10;37.90;;;15.61;41.60;101880.06;12239638;19;20512;-79
2022/05/01 07:36:43;;;;;;;2.15;1.60;;;17.20;37.70;;;15.71;41.50;101883.84;12245456;19;20025;-79
2022/05/01 07:40:44;;;;;;;2.83;1.48;;;17.40;37.60;;;15.79;41.49;101879.00;12242018;19;20356;-79
2022/05/01 07:44:46;;;;;;;1.98;1.35;;;17.60;37.40;;;15.89;41.32;101885.41;12233599;19;20491;-79
2022/05/01 07:48:48;;;;;;;1.52;1.40;;;17.60;37.20;;;15.81;41.14;101850.78;12235300;19;20432;-79
2022/05/01 07:52:50;;;;;;;1.73;1.52;;;17.80;37.10;;;16.08;40.99;101877.25;12228241;19;20176;-79
2022/05/01 07:56:51;;;;;;;2.90;1.38;;;17.90;37.00;;;16.22;40.86;101872.97;12230178;19;20011;-80
2022/05/01 08:00:54;;;;;;;1.88;0.93;;;17.90;36.90;;;16.44;40.95;101875.13;12234971;19;20374;-80
2022/05/01 08:04:56;;;;;;;2.95;1.42;;;18.20;37.20;;;16.69;41.00;101882.34;12231310;19;20019;-80
2022/05/01 08:08:58;;;;;;;0.93;0.93;;;18.30;36.90;;;16.90;40.73;101883.69;12236572;19;20034;-81
2022/05/01 08:12:59;;;;;;;3.10;1.15;;;18.60;36.90;;;17.05;40.63;101876.59;12233234;19;20044;-81
2022/05/01 08:17:01;;;;;;;3.25;1.50;;;18.70;36.80;;;17.13;40.29;101850.56;12231609;19;20043;-81
2022/05/01 08:21:06;;;;;;;1.10;1.10;;;19.00;36.70;;;17.42;40.39;101866.28;12230309;19;20042;-80
2022/05/01 08:25:07;;;;;;;2.53;1.30;;;19.10;36.60;;;17.66;40.44;101866.44;12235056;19;20014;-80
2022/05/01 08:29:09;;;;;;;1.45;1.23;;;19.40;36.60;;;17.85;40.08;101864.31;12238447;19;20015;-80
2022/05/01 08:33:11;;;;;;;3.05;1.80;;;19.40;36.30;;;17.83;39.89;101842.41;12235944;19;20369;-81
2022/05/01 08:37:12;;;;;;;2.45;2.25;;;19.70;36.20;;;18.05;39.96;101865.56;12239182;19;20010;-81
2022/05/01 08:41:15;;;;;;;1.45;1.25;;;19.90;35.80;;;18.00;39.67;101843.91;12235468;19;20030;-81
2022/05/01 08:45:21;;;;;;;1.98;1.65;;;19.80;35.90;;;18.17;39.82;101850.66;12235158;19;20022;-81
2022/05/01 08:49:24;;;;;;;5.80;1.65;;;20.00;35.90;;;18.37;39.93;101845.81;12234720;19;20735;-81
2022/05/01 08:53:28;;;;;;;3.47;1.80;;;20.00;35.90;;;18.53;39.40;101835.81;12235538;19;20039;-79
2022/05/01 08:57:33;;;;;;;1.60;1.42;;;20.30;35.90;;;18.85;39.40;101852.06;12234662;19;20033;-81
2022/05/01 09:01:36;;;;;;;2.85;1.60;;;20.60;35.90;;;18.81;39.21;101804.75;12236203;19;20498;-79
2022/05/01 09:05:39;;;;;;;3.35;1.60;;;20.70;35.50;;;19.23;38.82;101870.47;12200439;19;20022;-81
2022/05/01 09:09:41;;;;;;;3.50;2.10;;;20.90;35.10;;;19.15;38.67;101821.66;12215284;19;20029;-81
2022/05/01 09:13:44;;;;;;;2.30;1.77;;;21.00;35.00;;;19.40;38.43;101863.91;12209312;19;20018;-81
2022/05/01 09:18:02;;;;;;;3.45;2.28;;;21.10;34.70;;;19.33;38.17;101827.38;12214969;19;20523;-81
2022/05/01 09:22:04;;;;;;;2.53;1.70;;;21.20;34.60;;;19.41;38.63;101825.84;12216925;19;20050;-81
2022/05/01 09:26:08;;;;;;;2.60;1.83;;;21.30;34.80;;;19.30;38.50;101787.88;12213469;19;20023;-81
2022/05/01 09:30:20;;;;;;;3.78;1.88;;;21.40;34.80;;;19.60;38.33;101832.41;12219046;19;20018;-80
2022/05/01 09:34:25;;;;;;;2.58;1.77;;;21.50;34.70;;;19.66;38.19;101838.13;12221044;19;20022;-80
2022/05/01 09:38:27;;;;;;;5.63;1.83;;;21.60;34.80;;;19.54;38.41;101801.09;12212001;19;20436;-81
2022/05/01 09:42:34;;;;;;;2.63;1.40;;;21.70;35.10;;;19.77;37.96;101821.41;12219627;19;20133;-80
2022/05/01 09:46:38;;;;;;;1.90;1.80;;;21.60;34.40;;;19.93;38.13;101825.53;12219153;19;20046;-80
2022/05/01 09:50:43;;;;;;;2.30;1.75;;;21.80;34.60;;;20.01;38.02;101793.94;12219293;19;20644;-81
2022/05/01 09:55:05;;;;;;;4.10;1.85;;;21.90;34.60;;;20.24;37.32;101816.88;12218438;19;20022;-81
2022/05/01 09:59:07;;;;;;;2.38;1.90;;;22.00;34.50;;;20.45;37.50;101834.72;12220099;19;20019;-81
2022/05/01 10:03:42;;;;;;;3.05;1.80;;;22.10;34.40;;;20.51;37.43;101824.44;12219950;19;20047;-80
2022/05/01 10:07:44;;;;;;;2.37;1.50;;;22.20;34.60;;;20.61;37.42;101829.91;12217352;19;20055;-86
2022/05/01 10:11:47;;;;;;;3.45;2.10;;;22.30;34.50;;;20.74;37.34;101822.66;12215698;19;20947;-84
2022/05/01 10:15:50;;;;;;;2.35;2.13;;;22.40;34.00;;;20.93;37.20;101829.13;12224753;19;20015;-80
2022/05/01 10:19:54;;;;;;;1.98;1.40;;;22.50;34.00;;;20.97;36.82;101834.03;12224998;19;20014;-84
2022/05/01 10:24:04;;;;;;;1.60;1.50;;;22.70;34.00;;;20.96;37.02;101831.53;12226128;19;20050;-81
2022/05/01 10:28:43;;;;;;;;;;;22.70;33.70;;;20.45;37.18;101755.94;12230875;19;20048;-81
2022/05/01 10:33:37;;;;;;;2.33;1.88;;;22.70;34.00;;;20.78;37.24;101831.19;12228864;19;19922;-83
2022/05/01 10:38:09;;;;;;;2.88;1.50;;;22.70;33.50;;;20.24;37.15;101739.09;12219095;19;20356;-82
2022/05/01 10:42:10;;;;;;;4.25;1.60;;;22.70;33.70;;;20.73;36.97;101820.94;12220385;19;20033;-82
2022/05/01 10:46:21;;;;;;;2.78;1.98;;;22.60;33.70;;;20.84;36.46;101824.53;12220358;19;20562;-81
2022/05/01 10:50:25;;;;;;;4.15;1.98;;;22.40;33.40;;;20.68;36.76;101804.53;12219244;19;20011;-82
2022/05/01 10:54:32;;;;;;;2.08;1.60;;;22.60;33.70;;;20.64;36.77;101800.47;12214203;19;20025;-81
2022/05/01 10:58:36;;;;;;;2.45;1.73;;;22.60;33.70;;;20.57;36.74;101793.94;12225090;19;20015;-81
2022/05/01 11:02:45;;;;;;;7.53;2.38;;;22.70;33.60;;;20.66;36.77;101832.19;12214271;19;20017;-82
2022/05/01 11:06:48;;;;;;;2.58;1.77;;;22.60;33.40;;;20.49;36.58;101833.50;12222524;19;20041;-81
2022/05/01 11:10:53;;;;;;;4.28;1.77;;;22.40;33.40;;;20.37;36.48;101818.56;12229001;19;20030;-82
2022/05/01 11:15:09;;;;;;;4.72;2.40;;;22.40;33.40;;;20.27;36.40;101816.63;12227615;19;20010;-82
2022/05/01 11:19:10;;;;;;;6.35;1.95;;;22.50;33.50;;;20.02;36.87;101806.25;12236741;19;20491;-82
2022/05/01 11:23:33;;;;;;;5.38;2.17;;;22.20;33.50;;;20.00;36.77;101819.63;12222992;19;20446;-81
2022/05/01 11:27:51;;;;;;;3.80;2.13;;;22.00;33.50;;;19.77;36.78;101794.91;12224486;19;20014;-82
2022/05/01 11:31:52;;;;;;;3.53;2.03;;;21.90;33.50;;;19.57;37.05;101793.75;12223795;19;20024;-81
2022/05/01 11:35:56;;;;;;;1.67;1.50;;;21.80;34.00;;;19.66;36.97;101813.44;12226174;19;20353;-82
2022/05/01 11:39:58;;;;;;;2.38;1.65;;;21.70;33.50;;;19.58;36.62;101815.81;12229686;19;20018;-82
2022/05/01 11:44:19;;;;;;;1.88;1.77;;;21.60;33.70;;;19.46;36.88;101799.00;12224747;19;20019;-82
2022/05/01 11:48:22;;;;;;;1.88;1.48;;;21.50;33.80;;;19.48;36.87;101804.22;12225024;19;20338;-82
2022/05/01 11:52:24;;;;;;;3.38;1.77;;;21.50;33.90;;;19.45;36.91;101808.78;12220595;19;20115;-82
2022/05/01 12:05:07;;;;;;;2.10;1.42;;;21.30;33.90;;;19.30;36.90;101801.97;12225871;19;20078;-81
2022/05/01 12:09:08;;;;;;;5.85;1.80;;;21.20;33.90;;;19.32;36.49;101804.50;12223653;19;20014;-81
2022/05/01 12:13:24;;;;;;;3.17;1.80;;;21.20;33.70;;;19.20;36.78;101779.81;12222433;19;20042;-80
2022/05/01 12:17:26;;;;;;;2.60;1.70;;;21.20;33.70;;;19.30;36.54;101799.31;12225609;19;20114;-82
2022/05/01 12:21:31;;;;;;;1.80;1.33;;;21.10;33.70;;;19.24;36.59;101789.19;12227721;19;20367;-81
2022/05/01 12:25:32;;;;;;;1.42;1.30;;;21.00;33.80;;;19.22;36.53;101783.16;12225549;19;20014;-81
2022/05/01 12:29:37;;;;;;;1.85;1.50;;;21.00;33.80;;;19.23;36.86;101777.75;12224377;19;20094;-81
2022/05/01 12:33:38;;;;;;;1.60;1.30;;;21.10;33.80;;;19.20;36.66;101775.34;12224217;19;20695;-81
2022/05/01 12:37:41;;;;;;;3.95;1.17;;;21.20;33.70;;;19.21;36.86;101776.19;12224707;19;20024;-82
2022/05/01 12:46:30;;;;;;;1.58;1.40;;;21.10;33.80;;;19.14;36.67;101767.84;12226532;19;20018;-82
2022/05/01 12:50:35;;;;;;;2.50;1.25;;;21.20;33.80;;;19.21;36.87;101774.38;12226082;19;20032;-82
2022/05/01 12:54:36;;;;;;;1.67;1.57;;;21.20;33.80;;;19.29;36.57;101784.41;12222358;19;20022;-81
2022/05/01 12:58:39;;;;;;;3.60;1.15;;;21.20;33.80;;;19.19;36.67;101770.16;12223914;19;20014;-81
2022/05/01 13:02:41;;;;;;;1.33;1.17;;;21.20;33.80;;;19.25;36.75;101782.94;12226292;19;20022;-81
2022/05/01 13:06:42;;;;;;;3.15;1.67;;;21.00;33.80;;;18.79;36.44;101718.41;12224585;19;20366;-81
2022/05/01 13:11:13;;;;;;;1.92;1.73;;;21.10;33.30;;;19.00;36.08;101763.56;12225970;19;20825;-82
2022/05/01 13:15:15;;;;;;;1.42;1.23;;;21.00;33.00;;;19.06;35.99;101783.44;12218960;19;20018;-81
2022/05/01 13:19:20;;;;;;;2.10;1.60;;;20.90;32.80;;;18.84;36.20;101759.53;12222835;19;20025;-81
2022/05/01 13:23:21;;;;;;;2.60;1.38;;;20.70;32.50;;;18.76;35.80;101768.03;12223019;19;20023;-81
2022/05/01 13:27:23;;;;;;;1.92;1.70;;;20.80;32.60;;;18.75;36.02;101771.66;12220990;19;20022;-81
2022/05/01 13:31:25;;;;;;;2.72;1.75;;;20.80;32.60;;;18.78;35.94;101779.34;12218832;19;20054;-80
2022/05/01 13:35:26;;;;;;;1.63;1.52;;;20.60;32.70;;;18.76;35.79;101768.03;12222980;19;20522;-80
2022/05/01 13:48:09;;;;;;;2.25;1.50;;;20.60;32.70;;;18.78;35.54;101776.72;12231507;19;20041;-80
2022/05/01 13:52:11;;;;;;;1.40;1.30;;;20.70;32.60;;;18.70;35.61;101752.59;12240372;19;20232;-79
2022/05/01 13:56:15;;;;;;;2.80;1.50;;;20.50;32.40;;;18.80;35.51;101774.81;12246035;19;20026;-80
2022/05/01 14:00:17;;;;;;;1.42;1.23;;;20.60;32.30;;;18.77;35.47;101781.16;12249613;19;20026;-80
2022/05/01 14:04:19;;;;;;;2.80;1.25;;;20.70;32.50;;;18.63;35.39;101757.47;12245484;19;20369;-80
2022/05/01 14:08:21;;;;;;;2.10;1.35;;;20.60;32.50;;;18.60;35.39;101754.19;12247330;19;20015;-79
2022/05/01 14:12:23;;;;;;;1.30;1.20;;;20.60;32.50;;;18.72;35.37;101774.50;12243641;19;20093;-79
2022/05/01 14:16:25;;;;;;;1.08;1.08;;;20.40;32.50;;;18.34;35.28;101722.56;12248414;19;20011;-79
2022/05/01 14:20:26;;;;;;;1.35;1.25;;;20.60;32.40;;;18.71;35.18;101770.13;12247640;19;20039;-82
2022/05/01 14:24:28;;;;;;;1.40;1.30;;;20.60;32.50;;;18.55;35.21;101746.59;12241339;19;20014;-81
2022/05/01 14:28:31;;;;;;;2.00;1.40;;;20.50;32.40;;;18.62;35.35;101760.22;12242028;19;20464;-83
2022/05/01 14:32:53;;;;;;;1.33;1.10;;;20.50;32.50;;;18.59;35.01;101750.72;12223288;19;20014;-83
2022/05/01 14:37:00;;;;;;;1.05;0.95;;;20.50;32.40;;;18.54;35.06;101748.41;12206283;19;20901;-84
2022/05/01 14:41:04;;;;;;;1.30;1.20;;;20.50;32.50;;;18.54;35.18;101756.34;12225851;19;20034;-81
2022/05/01 14:45:07;;;;;;;1.30;1.05;;;20.50;32.40;;;18.52;35.18;101745.03;12228673;19;20078;-80
2022/05/01 14:49:38;;;;;;;1.10;1.00;;;20.50;32.50;;;18.57;34.99;101761.41;12229502;19;20011;-81
2022/05/01 14:53:40;;;;;;;2.30;1.20;;;20.50;32.40;;;18.47;35.23;101757.75;12225544;19;20018;-81
2022/05/01 14:57:44;;;;;;;1.20;1.15;;;20.40;32.30;;;18.26;35.20;101722.28;12230446;19;20039;-81
2022/05/01 15:06:17;;;;;;;1.75;1.30;;;20.30;32.20;;;18.36;35.20;101755.00;12229866;19;20019;-81
2022/05/01 15:10:21;;;;;;;2.67;1.20;;;20.20;32.10;;;17.90;34.93;101676.34;12231691;19;20019;-81
2022/05/01 15:14:24;;;;;;;1.40;1.10;;;20.20;32.20;;;18.22;34.81;101731.34;12228131;19;20117;-80
2022/05/01 15:18:59;;;;;;;1.88;1.23;;;20.20;32.20;;;18.27;34.75;101745.09;12230975;19;20032;-83
2022/05/01 15:23:31;;;;;;;1.40;1.30;;;20.10;32.30;;;18.11;34.97;101730.31;12229448;19;20035;-81
2022/05/01 15:28:04;;;;;;;2.28;1.40;;;20.00;32.20;;;18.12;34.90;101725.91;12228674;19;20006;-81
2022/05/01 15:32:08;;;;;;;1.40;1.25;;;20.10;32.50;;;18.20;35.16;101731.50;12225843;19;20766;-81
2022/05/01 15:36:35;;;;;;;1.08;1.08;;;20.00;32.50;;;18.23;34.85;101731.25;12225740;19;20033;-81
2022/05/01 15:40:49;;;;;;;2.40;1.70;;;20.10;32.70;;;18.25;35.09;101734.63;12230076;19;20018;-81
2022/05/01 15:44:54;;;;;;;4.10;3.20;;;20.10;32.60;;;18.24;35.34;101729.47;12224524;19;20020;-80
2022/05/01 15:53:39;;;;;;;3.45;3.08;;;20.10;32.80;;;18.26;35.17;101716.97;12225198;19;20014;-81
2022/05/01 15:57:42;;;;;;;2.53;1.77;;;20.10;32.80;;;18.16;35.33;101700.09;12228096;19;20038;-81
2022/05/01 16:01:46;;;;;;;2.53;2.33;;;20.20;33.00;;;18.31;35.18;101709.56;12227082;19;20042;-81
2022/05/01 16:05:48;;;;;;;2.75;2.45;;;20.40;33.00;;;18.38;35.09;101721.38;12226894;19;20022;-80
2022/05/01 16:10:25;;;;;;;3.00;1.83;;;20.10;32.90;;;18.32;35.18;101703.31;12226416;19;20049;-80
2022/05/01 16:14:48;;;;;;;2.05;1.88;;;20.20;33.30;;;18.45;35.40;101719.97;12216466;19;20033;-80
2022/05/01 16:19:15;;;;;;;3.25;2.10;;;20.00;32.70;;;18.34;35.45;101730.50;12224138;19;20014;-81
2022/05/01 16:23:52;;;;;;;2.72;2.35;;;20.20;32.80;;;18.27;35.34;101713.38;12224485;19;20019;-81
2022/05/01 16:28:09;;;;;;;2.70;1.73;;;20.20;32.90;;;18.19;35.37;101705.16;12225046;19;20021;-80
2022/05/01 16:32:35;;;;;;;2.05;1.85;;;20.10;33.00;;;18.14;35.63;101727.44;12222894;19;20026;-81
2022/05/01 16:36:37;;;;;;;2.80;2.17;;;20.10;32.80;;;18.05;35.56;101714.91;12224802;19;20452;-80
2022/05/01 16:40:38;;;;;;;6.80;1.67;;;20.00;33.00;;;17.97;35.61;101700.53;12226741;19;20440;-80
2022/05/01 16:44:45;;;;;;;2.75;2.45;;;19.90;33.00;;;18.01;35.80;101708.16;12223217;19;20766;-79
2022/05/01 16:48:47;;;;;;;2.83;1.90;;;19.90;33.10;;;18.10;35.65;101712.78;12224432;19;20021;-79
2022/05/01 16:52:50;;;;;;;2.17;1.80;;;19.90;33.30;;;18.10;35.75;101707.50;12221417;19;20041;-79
2022/05/01 16:56:52;;;;;;;4.70;1.67;;;19.80;33.20;;;18.02;35.65;101693.13;12222980;19;20019;-80
2022/05/01 17:01:00;;;;;;;1.73;1.52;;;19.80;33.10;;;18.08;35.63;101713.84;12222469;19;20018;-80
2022/05/01 17:05:40;;;;;;;1.50;1.40;;;19.80;33.20;;;18.02;35.42;101704.53;12222588;19;20015;-80
2022/05/01 17:09:56;;;;;;;1.75;1.58;;;19.90;33.30;;;18.03;35.67;101711.50;12221878;19;20139;-80
2022/05/01 17:14:30;;;;;;;3.00;2.20;;;19.90;33.40;;;17.70;35.78;101669.78;12221617;19;20024;-81
2022/05/01 17:18:56;;;;;;;2.67;1.38;;;19.80;33.40;;;17.80;35.80;101688.53;12223030;19;20018;-81
2022/05/01 17:23:08;;;;;;;1.55;1.38;;;19.80;33.40;;;17.80;35.69;101696.47;12221597;19;20348;-81
2022/05/01 17:27:13;;;;;;;3.13;1.55;;;19.70;33.60;;;17.82;36.05;101697.16;12220842;19;20542;-80
2022/05/01 17:31:17;;;;;;;2.15;1.48;;;19.70;33.50;;;17.85;36.08;101697.81;12220703;19;20010;-79
2022/05/01 17:35:23;;;;;;;3.88;1.58;;;19.70;33.70;;;17.88;36.02;101712.63;12226160;19;20304;-80